首页
METAR-TAF:

METAR-TAF

机场 :

白原, 紐約州, 美国

纬度: 41-04-01N, 经度: 073-42-27W, 海拔: 134米

当前天气观测

该预报发布于17分钟前的07:56 UTC
风速3节,风向东转东北
温度 -1°C
湿度 69%
气压 1034 hPa
能見度: 16.1公里
多云层高于3500英尺

METAR: KHPN 130756Z 06003KT 10SM BKN035 M01/M06 A3052 RMK AO2 SLP344 T10111056

时间: 03:13 (08:13 UTC)

预报

该预报发布于2小时和31分钟前的05:42 UTC
预报有效从13日的 06点(UTC)到 14日的 06点(UTC)
风速2节,风向多变
能見度: 10公里
散云层高于3000英尺
多云层高于25000英尺
短暂存在
从 13日的 06点(UTC)到 13日的 08点(UTC)
多云层高于3000英尺
多云层高于25000英尺
从 13日的 0900点(UTC)
风速2节,风向多变
能見度: 10公里
多云层高于3000英尺
短暂存在
从 13日的 09点(UTC)到 13日的 13点(UTC)
散云层高于3000英尺
从 13日的 1400点(UTC)
风速4节,风向
能見度: 10公里
散云层高于1200英尺
多云层高于2000英尺
几率 30%
从 13日的 16点(UTC)到 13日的 21点(UTC)
能見度: 8.0公里
阴天层高于1200英尺
小雨
从 13日的 2100点(UTC)
风速5节,风向
能見度: 4.8公里
多云层高于600英尺
阴天层高于1000英尺
小雨, 轻雾
从 13日的 2300点(UTC)
风速6节,风向
能見度: 3.2公里
散云层高于200英尺
阴天层高于500英尺
从 14日的 0300点(UTC)
风速7节,风向东转东北
能見度: 1.6公里
阴天层高于200英尺
雨, 轻雾

TAF: KHPN 130542Z 1306/1406 VRB02KT P6SM SCT030 BKN250 TEMPO 1306/1308 BKN030 BKN250 FM130900 VRB02KT P6SM BKN030 TEMPO 1309/1313 SCT030 FM131400 10004KT P6SM SCT012 BKN020 PROB30 1316/1321 5SM -RA OVC012 FM132100 09005KT 3SM -RA BR BKN006 OVC010 FM132300 08006KT 2SM RA SCT002 OVC005 FM140300 07007KT 1SM RA BR OVC002 AMD NOT SKED

超过4000个机场的气象观测和天气预报(METAR&TAF报告)。

可查询的气象台以黄色和红色小点在地图上表示。

将鼠标移到小点上方,可查看气象台名称。

然后点击查看天气观测和预报。

如需切换地图:点击带黑十字的绿色按钮放大地图;点击带横线的绿色按钮缩小地图;或者点击绿色箭头查看邻近地区的地图。


METAR-TAF: